Time;durP1;ratioP1;P1;durP2;ratioP2;P2;SDS_P1;SDS_P2;PMS_P1;PMS_P2;Temp;Humidity;BMP_temperature;BMP_pressure;BME280_temperature;BME280_humidity;BME280_pressure;Samples;Min_cycle;Max_cycle;Signal;HPM_P1;HPM_P2
2021/05/29 00:00:54;;;;;;;4.53;3.27;;;;;;;8.23;100.00;101524.16;4941352;29;20047;-79
2021/05/29 00:03:25;;;;;;;4.63;3.20;;;;;;;8.22;100.00;101520.66;4945062;28;20043;-79
2021/05/29 00:05:52;;;;;;;3.57;2.73;;;;;;;8.23;100.00;101525.03;4948425;28;20481;-79
2021/05/29 00:08:21;;;;;;;4.73;3.00;;;;;;;8.20;100.00;101527.69;4927012;28;20500;-80
2021/05/29 00:10:51;;;;;;;6.13;3.47;;;;;;;8.29;100.00;101527.69;4927295;29;20059;-78
2021/05/29 00:13:21;;;;;;;4.83;3.00;;;;;;;8.19;100.00;101534.69;4940192;28;20047;-78
2021/05/29 00:15:48;;;;;;;3.10;2.50;;;;;;;8.16;100.00;101532.06;4924621;29;20115;-78
2021/05/29 00:18:20;;;;;;;4.30;3.00;;;;;;;8.21;100.00;101532.06;4942863;28;20048;-78
2021/05/29 00:20:47;;;;;;;5.32;2.80;;;;;;;8.24;100.00;101536.44;4917332;28;20043;-79
2021/05/29 00:23:14;;;;;;;4.30;2.90;;;;;;;8.12;100.00;101532.91;4950535;29;20043;-78
2021/05/29 00:25:44;;;;;;;5.17;3.10;;;;;;;8.09;100.00;101527.66;4929088;29;20133;-79
2021/05/29 00:28:14;;;;;;;6.30;3.10;;;;;;;8.13;100.00;101526.78;4938101;28;20058;-79
2021/05/29 00:30:42;;;;;;;5.43;3.27;;;;;;;8.08;100.00;101533.78;4925177;28;20046;-79
2021/05/29 00:33:10;;;;;;;3.70;3.13;;;;;;;8.00;100.00;101534.63;4937511;28;20040;-79
2021/05/29 00:35:40;;;;;;;4.37;3.30;;;;;;;7.98;100.00;101524.06;4957880;28;20051;-78
2021/05/29 00:38:07;;;;;;;4.07;2.67;;;;;;;7.93;100.00;101532.84;4931245;28;20047;-78
2021/05/29 00:40:38;;;;;;;5.57;3.30;;;;;;;7.85;100.00;101528.44;4949162;28;20047;-79
2021/05/29 00:43:06;;;;;;;4.13;3.07;;;;;;;7.79;100.00;101519.63;4926386;29;20493;-80
2021/05/29 00:45:33;;;;;;;5.13;3.10;;;;;;;7.82;100.00;101528.44;4953184;28;20047;-78
2021/05/29 00:48:03;;;;;;;5.23;3.10;;;;;;;7.74;100.00;101524.00;4953760;28;20498;-79
2021/05/29 00:50:33;;;;;;;6.47;3.07;;;;;;;7.70;100.00;101525.72;4935009;29;20051;-78
2021/05/29 00:53:01;;;;;;;5.07;3.00;;;;;;;7.63;100.00;101524.78;4914787;29;20046;-80
2021/05/29 00:55:31;;;;;;;3.80;3.03;;;;;;;7.52;100.00;101531.75;4938267;29;20528;-78
2021/05/29 00:57:57;;;;;;;4.47;3.33;;;;;;;7.55;100.00;101541.41;4947972;28;20046;-78
2021/05/29 01:00:24;;;;;;;4.57;3.07;;;;;;;7.44;100.00;101529.94;4932930;28;20047;-79
2021/05/29 01:02:52;;;;;;;5.77;3.13;;;;;;;7.37;100.00;101530.78;4947598;29;20051;-78
2021/05/29 01:05:24;;;;;;;5.50;2.90;;;;;;;7.36;100.00;101529.03;4939009;28;20098;-79
2021/05/29 01:07:52;;;;;;;4.07;3.27;;;;;;;7.26;100.00;101534.22;4965493;28;20035;-79
2021/05/29 01:10:26;;;;;;;6.17;3.23;;;;;;;7.27;100.00;101528.09;4922624;29;20525;-79
2021/05/29 01:12:54;;;;;;;3.42;2.90;;;;;;;7.19;100.00;101531.53;4926797;28;20058;-78
2021/05/29 01:15:25;;;;;;;3.93;3.10;;;;;;;7.12;100.00;101525.34;4941244;28;20469;-80
2021/05/29 01:17:52;;;;;;;5.70;3.40;;;;;;;7.04;100.00;101527.03;4922082;29;20048;-79
2021/05/29 01:20:20;;;;;;;4.20;2.87;;;;;;;7.09;100.00;101524.47;4933885;28;20040;-78
2021/05/29 01:22:52;;;;;;;5.20;2.67;;;;;;;7.01;100.00;101520.03;4951955;28;20051;-79
2021/05/29 01:25:23;;;;;;;3.93;2.60;;;;;;;6.92;100.00;101529.56;4940731;28;20071;-78
2021/05/29 01:27:59;;;;;;;4.60;3.77;;;;;;;6.86;100.00;101522.50;4936253;29;20056;-79
2021/05/29 01:30:31;;;;;;;5.93;3.67;;;;;;;6.85;100.00;101520.75;4955871;28;20556;-78
2021/05/29 01:33:00;;;;;;;5.17;3.87;;;;;;;6.84;100.00;101512.88;4939731;29;20042;-78
2021/05/29 01:35:27;;;;;;;5.13;4.30;;;;;;;6.91;100.00;101519.94;4944245;28;20704;-78
2021/05/29 01:37:54;;;;;;;4.50;3.20;;;;;;;6.87;100.00;101513.75;4940052;28;20051;-79
2021/05/29 01:40:21;;;;;;;4.00;3.03;;;;;;;6.82;100.00;101519.88;4930814;28;20044;-79
2021/05/29 01:42:48;;;;;;;5.73;3.30;;;;;;;6.78;100.00;101524.19;4910952;29;20429;-78
2021/05/29 01:45:15;;;;;;;4.70;3.80;;;;;;;6.70;100.00;101534.63;4934556;28;20040;-79
2021/05/29 01:47:44;;;;;;;5.03;3.27;;;;;;;6.73;100.00;101532.06;4939420;28;20102;-79
2021/05/29 01:50:17;;;;;;;4.70;3.27;;;;;;;6.73;100.00;101532.06;4936635;28;20058;-80
2021/05/29 01:52:59;;;;;;;4.93;3.57;;;;;;;6.63;100.00;101534.53;4923468;28;20035;-80
2021/05/29 01:55:29;;;;;;;4.33;3.73;;;;;;;6.56;100.00;101538.88;4964019;28;20089;-79
2021/05/29 01:57:57;;;;;;;5.30;3.60;;;;;;;6.55;100.00;101533.59;4932150;29;20051;-80
2021/05/29 02:00:26;;;;;;;5.43;3.90;;;;;;;6.48;100.00;101533.56;4947474;28;20134;-79
2021/05/29 02:02:54;;;;;;;4.73;3.83;;;;;;;6.51;100.00;101540.56;4918243;29;20039;-79
2021/05/29 02:05:29;;;;;;;4.80;3.50;;;;;;;6.46;100.00;101534.38;4933089;29;20138;-78
2021/05/29 02:08:08;;;;;;;5.13;3.10;;;;;;;6.44;100.00;101538.75;4931107;29;20055;-78
2021/05/29 02:10:36;;;;;;;4.60;3.27;;;;;;;6.42;100.00;101537.84;4925317;29;20047;-78
2021/05/29 02:13:07;;;;;;;5.17;3.43;;;;;;;6.43;100.00;101531.72;4955076;28;20594;-78
2021/05/29 02:15:36;;;;;;;4.67;3.27;;;;;;;6.44;100.00;101539.63;4933283;29;20055;-78
2021/05/29 02:18:09;;;;;;;5.33;3.93;;;;;;;6.33;100.00;101545.63;4946905;29;20047;-78
2021/05/29 02:21:01;;;;;;;5.70;3.27;;;;;;;6.36;100.00;101543.91;4940144;28;20053;-79
2021/05/29 02:23:30;;;;;;;5.13;3.20;;;;;;;6.42;100.00;101545.72;4967593;28;20031;-78
2021/05/29 02:26:02;;;;;;;4.73;3.70;;;;;;;6.53;100.00;101541.47;4924754;29;20107;-78
2021/05/29 02:28:30;;;;;;;6.23;4.57;;;;;;;6.55;100.00;101544.97;4950773;28;20054;-79
2021/05/29 02:30:58;;;;;;;4.93;3.57;;;;;;;6.55;100.00;101550.22;4997633;23;20532;-77
2021/05/29 02:33:25;;;;;;;5.00;3.83;;;;;;;6.71;100.00;101549.50;4922671;29;20043;-78
2021/05/29 02:35:52;;;;;;;6.77;4.63;;;;;;;6.69;100.00;101545.13;4918024;29;20451;-76
2021/05/29 02:38:19;;;;;;;6.60;4.60;;;;;;;6.85;100.00;101546.16;4922246;29;20036;-79
2021/05/29 02:40:46;;;;;;;5.97;4.20;;;;;;;6.96;100.00;101555.00;4919283;29;20046;-78
2021/05/29 02:43:13;;;;;;;8.63;4.73;;;;;;;6.96;100.00;101547.97;4920620;29;20104;-76
2021/05/29 02:45:40;;;;;;;6.07;4.27;;;;;;;7.09;100.00;101551.59;4912912;29;20102;-79
2021/05/29 02:48:15;;;;;;;8.17;4.73;;;;;;;7.22;100.00;101548.19;4924871;29;20075;-77
2021/05/29 02:50:42;;;;;;;9.73;5.27;;;;;;;7.19;100.00;101547.31;4904299;29;20071;-78
2021/05/29 02:53:11;;;;;;;8.20;5.30;;;;;;;7.30;100.00;101545.63;4940658;28;20051;-78
2021/05/29 02:55:39;;;;;;;8.90;6.57;;;;;;;7.43;100.00;101543.97;4912922;29;20059;-78
2021/05/29 02:58:06;;;;;;;8.13;5.40;;;;;;;7.47;100.00;101556.25;4915127;29;20448;-77
2021/05/29 03:00:35;;;;;;;6.13;4.97;;;;;;;7.44;100.00;101549.22;4938741;29;20036;-80
2021/05/29 03:03:03;;;;;;;8.40;5.80;;;;;;;7.52;100.00;101544.91;4917060;29;20094;-77
2021/05/29 03:05:41;;;;;;;19.47;8.70;;;;;;;7.67;100.00;101546.75;4922304;29;20078;-77
2021/05/29 03:08:09;;;;;;;10.43;6.77;;;;;;;7.66;100.00;101555.50;4896898;29;20119;-79
2021/05/29 03:10:36;;;;;;;11.27;5.20;;;;;;;7.79;100.00;101544.16;4902034;29;20053;-78
2021/05/29 03:13:02;;;;;;;9.37;5.93;;;;;;;7.79;100.00;101544.16;4931483;29;20409;-78
2021/05/29 03:15:29;;;;;;;13.77;7.97;;;;;;;7.80;100.00;101543.28;4930452;29;20040;-80
2021/05/29 03:17:56;;;;;;;17.30;8.30;;;;;;;7.91;100.00;101540.75;4938703;29;20043;-78
2021/05/29 03:20:25;;;;;;;18.53;8.37;;;;;;;7.94;100.00;101545.13;4903749;29;20048;-76
2021/05/29 03:22:52;;;;;;;10.83;7.47;;;;;;;7.96;100.00;101552.16;4917436;29;20115;-76
2021/05/29 03:25:19;;;;;;;14.67;8.87;;;;;;;8.05;100.00;101552.19;4901048;29;20093;-81
2021/05/29 03:27:47;;;;;;;17.30;9.47;;;;;;;8.17;100.00;101548.75;4917086;29;20043;-76
2021/05/29 03:30:16;;;;;;;14.50;8.13;;;;;;;8.18;100.00;101550.50;4938408;29;20035;-77
2021/05/29 03:32:42;;;;;;;16.77;9.70;;;;;;;8.16;100.00;101545.22;4917733;29;20497;-77
2021/05/29 03:35:12;;;;;;;15.07;9.50;;;;;;;8.21;100.00;101555.75;4934269;29;20066;-77
2021/05/29 03:37:39;;;;;;;16.27;9.97;;;;;;;8.30;100.00;101550.50;4934367;29;20047;-77
2021/05/29 03:40:10;;;;;;;19.10;11.17;;;;;;;8.25;100.00;101547.00;4911723;29;20473;-81
2021/05/29 03:42:38;;;;;;;18.53;9.77;;;;;;;8.41;100.00;101543.59;4918971;29;20048;-77
2021/05/29 03:45:12;;;;;;;18.53;10.20;;;;;;;8.45;100.00;101544.47;4899966;29;20043;-77
2021/05/29 03:47:39;;;;;;;17.30;9.43;;;;;;;8.41;100.00;101558.50;4913951;29;20393;-77
2021/05/29 03:50:07;;;;;;;17.73;10.63;;;;;;;8.41;100.00;101561.13;4932333;29;20228;-78
2021/05/29 03:52:33;;;;;;;15.47;9.43;;;;;;;8.40;100.00;101562.88;4933555;28;20043;-75
2021/05/29 03:55:00;;;;;;;16.33;9.40;;;;;;;8.50;100.00;101568.19;4908424;28;20111;-79
2021/05/29 03:57:27;;;;;;;16.83;8.73;;;;;;;8.43;100.00;101569.91;4932308;29;20103;-77
2021/05/29 03:59:53;;;;;;;13.80;8.40;;;;;;;8.44;100.00;101571.66;4924941;29;20099;-78
2021/05/29 04:02:20;;;;;;;16.20;10.13;;;;;;;8.50;100.00;101578.72;4918627;29;20521;-82
2021/05/29 04:04:47;;;;;;;14.57;8.60;;;;;;;8.50;100.00;101582.22;4933718;29;20043;-76
2021/05/29 04:07:13;;;;;;;14.63;8.53;;;;;;;8.51;100.00;101585.75;4923806;28;20047;-76
2021/05/29 04:09:40;;;;;;;13.60;8.67;;;;;;;8.64;100.00;101584.88;4911261;29;20047;-79
2021/05/29 04:12:08;;;;;;;21.37;9.00;;;;;;;8.68;100.00;101590.16;4919387;29;20043;-75
2021/05/29 04:14:35;;;;;;;14.10;7.73;;;;;;;8.84;100.00;101590.19;4934800;29;20648;-81
2021/05/29 04:17:02;;;;;;;12.23;8.73;;;;;;;8.72;100.00;101578.75;4941931;29;20047;-77
2021/05/29 04:19:28;;;;;;;13.30;9.18;;;;;;;8.74;100.00;101584.00;4920203;28;20050;-76
2021/05/29 04:21:55;;;;;;;17.77;9.32;;;;;;;8.74;100.00;101587.56;4925182;28;20051;-76
2021/05/29 04:24:22;;;;;;;12.32;8.32;;;;;;;8.76;100.00;101584.91;4922811;29;20102;-76
2021/05/29 04:26:49;;;;;;;16.33;8.93;;;;;;;8.81;100.00;101580.50;4918084;29;20106;-76
2021/05/29 04:29:15;;;;;;;15.32;8.80;;;;;;;8.85;100.00;101577.03;4922659;29;20046;-78
2021/05/29 04:31:42;;;;;;;17.65;9.65;;;;;;;8.95;100.00;101581.41;4923782;29;20055;-76
2021/05/29 04:34:09;;;;;;;14.98;8.02;;;;;;;8.91;100.00;101582.31;4934041;29;20046;-76
2021/05/29 04:36:35;;;;;;;13.80;8.50;;;;;;;8.95;100.00;101578.78;4921624;29;20048;-77
2021/05/29 04:39:03;;;;;;;14.63;8.05;;;;;;;9.10;100.00;101577.91;4921060;29;20142;-76
2021/05/29 04:41:30;;;;;;;15.65;9.50;;;;;;;9.21;100.00;101575.28;4932289;29;20047;-77
2021/05/29 04:43:56;;;;;;;14.15;8.00;;;;;;;9.20;100.00;101584.06;4919441;29;20046;-77
2021/05/29 04:46:23;;;;;;;14.90;9.68;;;;;;;9.32;100.00;101584.94;4926898;29;20091;-75
2021/05/29 04:48:50;;;;;;;15.25;9.35;;;;;;;9.40;100.00;101582.28;4913534;29;20127;-81
2021/05/29 04:51:16;;;;;;;14.30;8.70;;;;;;;9.34;100.00;101598.13;4945112;28;20043;-76
2021/05/29 04:53:45;;;;;;;15.30;8.52;;;;;;;9.35;100.00;101589.34;4918544;29;20054;-76
2021/05/29 04:56:12;;;;;;;13.18;8.00;;;;;;;9.44;100.00;101594.59;4930486;29;20359;-82
2021/05/29 04:58:39;;;;;;;13.20;8.13;;;;;;;9.48;100.00;101584.91;4933737;29;20043;-77
2021/05/29 05:01:10;;;;;;;14.27;7.68;;;;;;;9.53;100.00;101591.97;4903476;29;20481;-82
2021/05/29 05:03:38;;;;;;;14.38;7.63;;;;;;;9.47;100.00;101594.59;4920190;29;20119;-77
2021/05/29 05:06:05;;;;;;;15.75;8.75;;;;;;;9.59;100.00;101591.97;4930584;29;20040;-78
2021/05/29 05:08:33;;;;;;;12.98;8.55;;;;;;;9.66;100.00;101594.56;4923168;29;20040;-79
2021/05/29 05:11:00;;;;;;;16.65;8.55;;;;;;;9.82;100.00;101607.72;4911210;28;20031;-76
2021/05/29 05:13:27;;;;;;;13.40;7.60;;;;;;;9.76;100.00;101601.59;4940897;29;20047;-78
2021/05/29 05:15:55;;;;;;;12.50;7.82;;;;;;;9.86;100.00;101600.69;4939087;29;20051;-78
2021/05/29 05:18:23;;;;;;;12.48;7.03;;;;;;;9.82;100.00;101606.84;4935722;29;20035;-77
2021/05/29 05:20:53;;;;;;;19.00;7.95;;;;;;;9.81;100.00;101605.97;4920243;29;20415;-78
2021/05/29 05:23:22;;;;;;;13.38;7.63;;;;;;;9.94;100.00;101603.31;4935409;29;20058;-78
2021/05/29 05:25:53;;;;;;;13.02;7.32;;;;;;;10.01;100.00;101599.78;4922633;29;20054;-78
2021/05/29 05:28:21;;;;;;;12.05;7.45;;;;;;;10.09;100.00;101601.50;4919399;28;20042;-78
2021/05/29 05:30:48;;;;;;;18.63;16.80;;;;;;;10.19;99.15;101604.13;4911186;29;20168;-79
2021/05/29 05:33:15;;;;;;;11.07;7.65;;;;;;;10.31;100.00;101604.09;4923648;29;20102;-78
2021/05/29 05:35:43;;;;;;;11.77;7.70;;;;;;;10.29;98.92;101606.75;4933299;29;20039;-76
2021/05/29 05:38:10;;;;;;;13.68;8.80;;;;;;;10.25;98.61;101604.97;4936246;29;20058;-76
2021/05/29 05:40:36;;;;;;;12.80;8.38;;;;;;;10.13;98.66;101602.38;4932874;29;20103;-75
2021/05/29 05:43:03;;;;;;;12.43;9.20;;;;;;;10.27;98.96;101602.34;4919858;29;20469;-79
2021/05/29 05:45:30;;;;;;;15.48;9.27;;;;;;;10.36;99.36;101605.84;4931937;29;20091;-78
2021/05/29 05:47:56;;;;;;;10.00;6.90;;;;;;;10.38;98.33;101611.09;4931674;29;20055;-78
2021/05/29 05:50:23;;;;;;;14.45;9.93;;;;;;;10.39;97.54;101611.09;4929903;29;20047;-76
2021/05/29 05:52:50;;;;;;;15.18;6.93;;;;;;;10.44;97.09;101619.00;4930141;29;20049;-74
2021/05/29 05:55:17;;;;;;;7.93;6.07;;;;;;;10.37;96.92;101612.00;4933328;29;20055;-74
2021/05/29 05:57:43;;;;;;;12.75;6.85;;;;;;;10.39;97.29;101615.50;4914308;29;20079;-78
2021/05/29 06:00:12;;;;;;;10.40;6.20;;;;;;;10.39;96.89;101618.13;4922022;28;20047;-75
2021/05/29 06:02:41;;;;;;;11.10;6.68;;;;;;;10.36;96.38;101623.44;4912411;29;20553;-74
2021/05/29 06:05:10;;;;;;;12.52;7.72;;;;;;;10.46;97.27;101622.50;4945893;29;20043;-73
2021/05/29 06:07:37;;;;;;;14.23;7.32;;;;;;;10.36;95.86;101628.72;4916113;29;20399;-74
2021/05/29 06:10:05;;;;;;;12.63;6.95;;;;;;;10.27;96.33;101627.00;4928302;29;20099;-78
2021/05/29 06:12:34;;;;;;;10.43;6.30;;;;;;;10.40;97.23;101626.06;4942796;28;20048;-73
2021/05/29 06:20:51;;;;;;;;;;;;;;;10.61;95.85;101632.13;4908991;29;20046;-77
2021/05/29 06:23:17;;;;;;;12.65;6.93;;;;;;;10.71;93.42;101637.34;4895264;29;19987;-77
2021/05/29 06:25:44;;;;;;;12.65;6.43;;;;;;;10.60;95.13;101628.63;4913739;28;20061;-77
2021/05/29 06:28:11;;;;;;;9.48;6.15;;;;;;;10.69;95.05;101640.91;4935439;29;20109;-76
2021/05/29 06:30:38;;;;;;;10.68;6.05;;;;;;;10.67;94.29;101635.59;4931515;29;20111;-77
2021/05/29 06:33:05;;;;;;;12.38;5.97;;;;;;;10.71;93.86;101631.19;4914592;29;20044;-76
2021/05/29 06:35:32;;;;;;;9.30;6.28;;;;;;;10.81;94.84;101634.66;4921138;29;20048;-76
2021/05/29 06:38:00;;;;;;;8.93;5.65;;;;;;;10.81;95.00;101639.94;4947834;29;20039;-79
2021/05/29 06:40:27;;;;;;;9.68;5.63;;;;;;;10.81;93.62;101646.13;4913228;29;20055;-77
2021/05/29 06:42:54;;;;;;;11.88;6.05;;;;;;;10.92;93.87;101643.41;4902589;29;20071;-75
2021/05/29 06:45:21;;;;;;;38.33;22.83;;;;;;;10.97;92.13;101646.91;4931056;29;20039;-78
2021/05/29 06:47:48;;;;;;;21.77;12.07;;;;;;;11.04;93.23;101643.34;4909889;29;20758;-77
2021/05/29 06:50:15;;;;;;;10.85;6.05;;;;;;;11.08;94.17;101646.81;4930910;28;20043;-77
2021/05/29 06:52:46;;;;;;;10.20;6.50;;;;;;;11.14;92.71;101644.16;4901118;29;20129;-77
2021/05/29 06:58:39;;;;;;;8.82;5.57;;;;;;;11.19;92.27;101643.22;4934829;28;20053;-76
2021/05/29 07:00:51;;;;;;;9.82;6.00;;;;;;;11.27;91.45;101651.13;4935434;28;20051;-78
2021/05/29 07:03:18;;;;;;;10.95;6.80;;;;;;;11.32;91.93;101651.94;4914325;28;20057;-78
2021/05/29 07:05:45;;;;;;;10.10;6.22;;;;;;;11.31;91.42;101642.25;4899806;28;20047;-77
2021/05/29 07:08:12;;;;;;;10.77;5.85;;;;;;;11.21;90.61;101649.38;4904013;29;20477;-74
2021/05/29 07:10:38;;;;;;;10.00;5.50;;;;;;;11.13;88.91;101653.84;4928010;28;20051;-76
2021/05/29 07:13:05;;;;;;;8.35;5.63;;;;;;;11.36;88.26;101645.75;4933684;28;20043;-76
2021/05/29 07:15:36;;;;;;;9.82;5.25;;;;;;;11.39;89.06;101642.19;4916704;29;20574;-76
2021/05/29 07:18:10;;;;;;;10.57;6.25;;;;;;;11.52;90.92;101643.84;4936083;29;20066;-75
2021/05/29 07:20:38;;;;;;;10.70;6.47;;;;;;;11.69;92.52;101646.34;4931304;28;20056;-78
2021/05/29 07:23:05;;;;;;;17.17;6.57;;;;;;;11.85;91.90;101640.03;4904100;29;20047;-77
2021/05/29 07:25:32;;;;;;;8.23;5.55;;;;;;;11.93;89.04;101650.53;4936355;28;20070;-77
2021/05/29 07:27:59;;;;;;;10.60;6.13;;;;;;;12.03;88.91;101652.22;4903113;29;20095;-76
2021/05/29 07:30:26;;;;;;;8.23;5.10;;;;;;;11.97;88.34;101650.50;4925499;28;20043;-77
2021/05/29 07:32:53;;;;;;;6.45;5.10;;;;;;;12.10;83.96;101648.59;4945897;28;20094;-77
2021/05/29 07:35:21;;;;;;;9.25;5.28;;;;;;;12.06;86.39;101654.81;4942284;28;20150;-78
2021/05/29 07:37:47;;;;;;;9.27;5.35;;;;;;;12.23;86.95;101650.22;4922636;29;20047;-76
2021/05/29 07:40:14;;;;;;;9.02;5.35;;;;;;;12.22;85.88;101667.00;4935899;29;20039;-79
2021/05/29 07:42:41;;;;;;;8.48;5.85;;;;;;;12.11;85.42;101659.19;4933883;28;20036;-77
2021/05/29 07:45:10;;;;;;;8.95;5.47;;;;;;;11.90;86.56;101667.34;4906583;29;20064;-74
2021/05/29 07:47:37;;;;;;;8.20;5.05;;;;;;;11.97;87.71;101671.69;4947035;28;20494;-75
2021/05/29 07:50:05;;;;;;;11.43;7.05;;;;;;;12.11;86.95;101674.22;4914119;29;20094;-78
2021/05/29 07:52:31;;;;;;;8.38;5.25;;;;;;;12.05;84.71;101680.44;4933993;28;20076;-75
2021/05/29 07:54:58;;;;;;;9.60;5.07;;;;;;;11.99;86.10;101682.25;4938026;28;20044;-77
2021/05/29 07:57:25;;;;;;;9.77;4.97;;;;;;;11.91;86.72;101681.47;4955100;28;20043;-77
2021/05/29 07:59:52;;;;;;;12.27;6.30;;;;;;;11.87;86.56;101677.09;4912672;29;20044;-75
2021/05/29 08:02:18;;;;;;;10.98;6.03;;;;;;;11.96;84.90;101679.66;4915847;29;20127;-76
2021/05/29 08:04:45;;;;;;;9.52;4.82;;;;;;;12.02;85.89;101671.63;4932060;28;20106;-76
2021/05/29 08:07:12;;;;;;;10.70;5.47;;;;;;;11.99;85.69;101680.50;4937085;28;20459;-76
2021/05/29 08:09:38;;;;;;;8.90;5.35;;;;;;;12.02;85.49;101684.88;4934087;29;20389;-77
2021/05/29 08:12:05;;;;;;;10.60;5.55;;;;;;;12.08;86.04;101675.09;4915351;29;20043;-73
2021/05/29 08:14:34;;;;;;;8.48;5.53;;;;;;;12.23;87.34;101678.50;4927026;28;20095;-75
2021/05/29 08:17:01;;;;;;;9.75;5.55;;;;;;;12.46;84.62;101676.47;4920069;28;20049;-77
2021/05/29 08:19:28;;;;;;;7.47;4.70;;;;;;;12.39;82.20;101662.41;4916124;29;20111;-77
2021/05/29 08:21:55;;;;;;;8.27;5.40;;;;;;;12.62;83.98;101663.91;4900564;29;20103;-77
2021/05/29 08:24:22;;;;;;;9.45;5.20;;;;;;;12.82;83.94;101666.28;4905216;29;20059;-77
2021/05/29 08:26:51;;;;;;;9.98;5.95;;;;;;;12.95;83.40;101666.09;4921823;28;20062;-76
2021/05/29 08:29:18;;;;;;;9.80;5.50;;;;;;;13.03;79.88;101663.34;4919317;29;20465;-76
2021/05/29 08:31:45;;;;;;;8.48;5.22;;;;;;;13.10;80.98;101654.34;4918797;28;20047;-77
2021/05/29 08:34:14;;;;;;;9.98;6.25;;;;;;;13.34;80.56;101655.78;4914937;29;20110;-77
2021/05/29 08:36:41;;;;;;;8.80;5.30;;;;;;;13.51;76.30;101656.38;4922890;28;21602;-76
2021/05/29 08:39:09;;;;;;;7.28;4.82;;;;;;;13.76;75.49;101661.28;4911796;29;20039;-78
2021/05/29 08:41:37;;;;;;;7.97;4.80;;;;;;;14.23;73.77;101654.22;4943157;28;20035;-77
2021/05/29 08:44:05;;;;;;;5.78;4.25;;;;;;;14.65;75.03;101655.16;4926786;29;20050;-76
2021/05/29 08:46:32;;;;;;;9.73;4.90;;;;;;;14.53;69.00;101658.94;4934418;28;20360;-76
2021/05/29 08:48:59;;;;;;;6.95;4.57;;;;;;;14.75;70.58;101655.81;4919398;29;20040;-76
2021/05/29 08:51:26;;;;;;;7.55;5.15;;;;;;;14.72;70.62;101662.09;4940887;28;20094;-77
2021/05/29 08:53:56;;;;;;;7.90;4.53;;;;;;;14.67;72.86;101663.97;5072475;23;20432;-86
2021/05/29 08:56:25;;;;;;;10.95;5.38;;;;;;;14.73;71.44;101657.66;4909048;29;20052;-82
2021/05/29 08:58:53;;;;;;;6.97;4.00;;;;;;;14.91;71.91;101651.91;4870990;29;20051;-82
2021/05/29 09:01:21;;;;;;;8.70;5.05;;;;;;;15.08;69.03;101652.41;4886760;29;20071;-83
2021/05/29 09:03:51;;;;;;;9.70;5.05;;;;;;;15.42;67.52;101651.59;4880549;29;20082;-83
2021/05/29 09:06:25;;;;;;;7.75;4.72;;;;;;;15.49;67.12;101659.41;4888846;29;20067;-84
2021/05/29 09:08:56;;;;;;;8.43;4.18;;;;;;;15.66;69.61;101648.34;4883857;29;20494;-83
2021/05/29 09:11:52;;;;;;;4.80;4.00;;;;;;;15.68;63.83;101665.16;4901785;29;20100;-83
2021/05/29 09:14:26;;;;;;;6.32;4.15;;;;;;;15.97;66.26;101664.38;4885956;29;20048;-82
2021/05/29 09:17:03;;;;;;;7.50;4.47;;;;;;;15.98;62.82;101662.63;4910095;29;20036;-84
2021/05/29 09:19:55;;;;;;;7.45;4.78;;;;;;;16.40;68.39;101665.88;4916792;29;20075;-84
2021/05/29 09:22:37;;;;;;;7.03;4.38;;;;;;;16.32;63.29;101666.09;4906977;29;20075;-83
2021/05/29 09:25:14;;;;;;;7.32;5.05;;;;;;;16.65;64.92;101668.72;4915126;29;20074;-84
2021/05/29 09:27:58;;;;;;;7.18;4.50;;;;;;;16.53;63.17;101661.94;4897067;29;20115;-83
2021/05/29 09:30:40;;;;;;;7.80;4.40;;;;;;;16.76;63.35;101661.28;4920924;29;20565;-83
2021/05/29 09:33:10;;;;;;;7.38;3.97;;;;;;;16.78;63.70;101655.91;4909983;29;20083;-83
2021/05/29 09:35:37;;;;;;;6.32;4.43;;;;;;;16.69;63.61;101670.41;4906386;29;20557;-83
2021/05/29 09:38:04;;;;;;;8.07;4.60;;;;;;;16.27;62.53;101653.81;4877876;29;20056;-82
2021/05/29 09:40:32;;;;;;;11.63;5.03;;;;;;;16.03;64.25;101663.34;4874375;29;20146;-84
2021/05/29 09:43:05;;;;;;;6.80;4.85;;;;;;;15.70;63.57;101665.13;4923428;29;20050;-83
2021/05/29 09:45:32;;;;;;;6.33;4.40;;;;;;;16.05;64.31;101653.50;4882041;29;20076;-83
2021/05/29 09:48:20;;;;;;;6.15;4.25;;;;;;;16.27;63.96;101651.13;4893380;29;20072;-85
2021/05/29 09:50:56;;;;;;;7.70;4.78;;;;;;;16.58;62.93;101643.13;4877442;29;20043;-84
2021/05/29 09:53:28;;;;;;;4.45;4.00;;;;;;;16.96;62.69;101650.00;4896477;29;20048;-84
2021/05/29 09:55:55;;;;;;;6.90;4.07;;;;;;;17.44;61.08;101638.66;4887820;29;20051;-82
2021/05/29 09:58:51;;;;;;;5.57;3.88;;;;;;;17.39;60.87;101641.47;4914582;29;20078;-84
2021/05/29 10:01:38;;;;;;;7.68;4.32;;;;;;;17.49;60.29;101652.75;4899821;29;20092;-84
2021/05/29 10:04:07;;;;;;;5.35;4.40;;;;;;;17.54;59.45;101648.09;4903375;29;20048;-83
2021/05/29 10:06:41;;;;;;;8.05;4.68;;;;;;;17.29;58.14;101644.50;5062537;27;20468;-83
2021/05/29 10:09:08;;;;;;;6.88;5.05;;;;;;;17.11;59.60;101638.84;5029123;28;20061;-82
2021/05/29 10:11:37;;;;;;;8.88;4.82;;;;;;;17.61;61.92;101630.06;5045501;27;20051;-82
2021/05/29 10:14:06;;;;;;;5.78;4.13;;;;;;;18.02;62.70;101630.47;5045854;28;20088;-84
2021/05/29 10:16:33;;;;;;;6.50;4.18;;;;;;;18.32;62.56;101631.13;5029949;27;20037;-83
2021/05/29 10:19:02;;;;;;;6.70;4.78;;;;;;;17.68;57.09;101640.50;5027291;28;20040;-85
2021/05/29 10:21:31;;;;;;;5.85;4.07;;;;;;;17.49;56.66;101641.16;5025742;28;20648;-84
2021/05/29 10:23:59;;;;;;;8.43;4.22;;;;;;;17.86;57.41;101641.69;5061341;28;20037;-84
2021/05/29 10:26:28;;;;;;;5.60;4.13;;;;;;;18.08;57.45;101641.81;5031416;27;20048;-82
2021/05/29 10:28:56;;;;;;;11.80;4.97;;;;;;;18.11;57.90;101640.81;5055859;28;20217;-83
2021/05/29 10:31:29;;;;;;;5.38;4.40;;;;;;;18.08;56.30;101638.28;5050929;27;20320;-84
2021/05/29 10:33:55;;;;;;;5.43;4.07;;;;;;;18.06;57.23;101642.78;5029905;28;20589;-83
2021/05/29 10:36:44;;;;;;;6.00;3.75;;;;;;;18.17;55.56;101629.91;5030231;28;20320;-84
2021/05/29 10:39:22;;;;;;;7.32;4.40;;;;;;;18.25;56.94;101643.88;5053969;28;20479;-81
2021/05/29 10:41:54;;;;;;;6.20;3.97;;;;;;;18.36;55.55;101652.38;5015840;28;20052;-82
2021/05/29 10:44:36;;;;;;;6.53;4.35;;;;;;;18.39;54.01;101633.53;5043756;28;20069;-81
2021/05/29 10:47:03;;;;;;;5.25;4.30;;;;;;;18.41;55.68;101626.31;5078425;28;20543;-82
2021/05/29 10:49:52;;;;;;;6.05;4.00;;;;;;;18.55;53.42;101625.78;5059747;28;20049;-83
2021/05/29 10:52:31;;;;;;;8.93;4.20;;;;;;;18.41;51.10;101628.97;5040492;28;20128;-80
2021/05/29 10:55:13;;;;;;;5.03;3.70;;;;;;;18.45;51.96;101622.59;5041321;28;20047;-81
2021/05/29 10:57:57;;;;;;;5.60;4.07;;;;;;;18.06;53.29;101632.09;5052757;28;20144;-82
2021/05/29 11:00:40;;;;;;;6.15;4.10;;;;;;;18.10;52.30;101650.66;5024806;28;20041;-81
2021/05/29 11:03:16;;;;;;;6.72;3.83;;;;;;;17.37;53.35;101640.66;5051204;27;20101;-81
2021/05/29 11:05:44;;;;;;;8.13;3.80;;;;;;;17.57;54.04;101623.06;5041043;27;20045;-81
2021/05/29 11:08:47;;;;;;;5.55;3.90;;;;;;;17.85;56.25;101634.59;5059583;28;20048;-82
2021/05/29 11:11:36;;;;;;;5.95;3.65;;;;;;;18.12;52.68;101621.16;5030919;28;20053;-84
2021/05/29 11:14:05;;;;;;;5.70;3.90;;;;;;;18.13;54.50;101622.91;5056067;28;20087;-83
2021/05/29 11:16:52;;;;;;;5.13;3.45;;;;;;;17.95;51.68;101636.03;5016685;28;20065;-84
2021/05/29 11:19:33;;;;;;;6.43;3.70;;;;;;;17.57;51.86;101636.44;5046999;27;20049;-83
2021/05/29 11:22:00;;;;;;;6.28;4.13;;;;;;;17.24;55.93;101641.13;5030370;28;20046;-85
2021/05/29 11:24:28;;;;;;;7.20;3.90;;;;;;;17.10;55.04;101638.88;5035842;28;20071;-82
2021/05/29 11:26:55;;;;;;;7.40;5.03;;;;;;;17.17;58.79;101640.44;5013983;28;20043;-82
2021/05/29 11:29:21;;;;;;;6.00;4.15;;;;;;;17.09;57.14;101640.69;5028658;28;20049;-79
2021/05/29 11:31:49;;;;;;;6.45;4.00;;;;;;;17.24;56.11;101639.34;5038103;28;20037;-82
2021/05/29 11:34:16;;;;;;;5.60;3.92;;;;;;;17.30;57.26;101646.25;5024160;28;20090;-81
2021/05/29 11:36:44;;;;;;;9.85;3.90;;;;;;;17.26;57.05;101642.81;5047163;28;20045;-82
2021/05/29 11:39:13;;;;;;;5.20;3.35;;;;;;;17.29;58.21;101645.38;5047262;28;20041;-82
2021/05/29 11:41:40;;;;;;;4.82;4.00;;;;;;;17.06;54.24;101654.13;5031867;28;20049;-82